Time;durP1;ratioP1;P1;durP2;ratioP2;P2;SDS_P1;SDS_P2;PMS_P1;PMS_P2;Temp;Humidity;BMP_temperature;BMP_pressure;BME280_temperature;BME280_humidity;BME280_pressure;Samples;Min_cycle;Max_cycle;Signal;HPM_P1;HPM_P2
2023/01/18 00:01:53;;;;;;;10.80;7.97;;;1.40;99.90;;;;;;4992485;28;20570;-75
2023/01/18 00:04:18;;;;;;;10.90;8.57;;;1.30;99.90;;;;;;4992235;28;20436;-75
2023/01/18 00:06:44;;;;;;;10.77;8.37;;;1.30;99.90;;;;;;4992739;28;20259;-77
2023/01/18 00:09:09;;;;;;;10.93;7.27;;;1.30;99.90;;;;;;4992612;28;20180;-75
2023/01/18 00:11:35;;;;;;;13.10;9.13;;;1.30;99.90;;;;;;4992309;28;20680;-75
2023/01/18 00:14:01;;;;;;;12.70;8.57;;;1.30;99.90;;;;;;4992133;28;20179;-76
2023/01/18 00:16:29;;;;;;;14.83;10.37;;;1.30;99.90;;;;;;4992228;28;20210;-75
2023/01/18 00:18:58;;;;;;;17.80;10.27;;;1.40;99.90;;;;;;4992316;28;20438;-75
2023/01/18 00:21:25;;;;;;;19.00;9.50;;;1.30;99.90;;;;;;4992011;28;20800;-75
2023/01/18 00:23:51;;;;;;;12.47;9.20;;;1.30;99.90;;;;;;4992335;28;20430;-76
2023/01/18 00:26:17;;;;;;;14.00;9.70;;;1.30;99.90;;;;;;4992244;28;20481;-75
2023/01/18 00:28:42;;;;;;;12.23;9.80;;;1.30;99.90;;;;;;4992367;28;20172;-76
2023/01/18 00:31:10;;;;;;;12.87;8.60;;;1.30;99.90;;;;;;4991740;28;20226;-76
2023/01/18 00:33:37;;;;;;;15.33;9.30;;;1.30;99.90;;;;;;4992291;28;20578;-75
2023/01/18 00:36:04;;;;;;;13.90;8.90;;;1.30;99.90;;;;;;4992022;28;20416;-75
2023/01/18 00:38:30;;;;;;;12.77;9.07;;;1.20;99.90;;;;;;4992161;28;20207;-75
2023/01/18 00:40:56;;;;;;;11.10;8.40;;;1.30;99.90;;;;;;4992012;28;20464;-76
2023/01/18 00:43:40;;;;;;;10.80;8.70;;;1.20;99.90;;;;;;4991866;28;20431;-75
2023/01/18 00:46:18;;;;;;;14.93;9.80;;;1.30;99.90;;;;;;4992212;28;20425;-75
2023/01/18 00:48:43;;;;;;;18.00;9.97;;;1.30;99.90;;;;;;4991963;28;20423;-75
2023/01/18 00:51:11;;;;;;;15.60;11.30;;;1.30;99.90;;;;;;4991734;28;20469;-76
2023/01/18 00:53:37;;;;;;;13.23;10.53;;;1.30;99.90;;;;;;4991924;28;20200;-75
2023/01/18 00:56:08;;;;;;;14.43;11.60;;;1.30;99.90;;;;;;4992135;28;20476;-76
2023/01/18 00:58:34;;;;;;;14.20;9.63;;;1.30;99.90;;;;;;4991913;28;20214;-76
2023/01/18 01:00:59;;;;;;;15.67;11.20;;;1.20;99.90;;;;;;4991450;28;20432;-75
2023/01/18 01:03:25;;;;;;;17.47;10.90;;;1.20;99.90;;;;;;4989930;28;20959;-76
2023/01/18 01:08:34;;;;;;;15.63;9.67;;;1.20;99.90;;;;;;4991772;28;20194;-76
2023/01/18 01:11:09;;;;;;;12.57;8.93;;;1.20;99.90;;;;;;4991495;28;20443;-77
2023/01/18 01:27:16;;;;;;;15.40;10.33;;;1.20;99.90;;;;;;4995425;28;20467;-75
2023/01/18 01:29:42;;;;;;;13.60;9.53;;;1.20;99.90;;;;;;4995481;28;20407;-76
2023/01/18 01:32:08;;;;;;;11.50;9.20;;;1.20;99.90;;;;;;4994917;28;20221;-76
2023/01/18 01:34:34;;;;;;;12.60;9.13;;;1.20;99.90;;;;;;4997279;28;20217;-75
2023/01/18 01:37:00;;;;;;;13.70;9.10;;;1.20;99.90;;;;;;4998119;28;20501;-76
2023/01/18 01:39:26;;;;;;;13.10;9.47;;;1.10;99.90;;;;;;4996487;28;20415;-76
2023/01/18 01:41:51;;;;;;;12.20;9.53;;;1.10;99.90;;;;;;4995647;28;20532;-76
2023/01/18 01:44:18;;;;;;;13.80;10.50;;;1.10;99.90;;;;;;4995124;28;20311;-76
2023/01/18 01:46:46;;;;;;;11.50;9.50;;;1.10;99.90;;;;;;4995909;28;20653;-76
2023/01/18 01:49:23;;;;;;;11.00;8.40;;;1.10;99.90;;;;;;4995085;28;20506;-76
2023/01/18 01:51:57;;;;;;;14.07;9.00;;;1.10;99.90;;;;;;4995327;28;20526;-75
2023/01/18 01:54:29;;;;;;;12.47;8.87;;;1.10;99.90;;;;;;4994616;28;20425;-75
2023/01/18 01:57:09;;;;;;;12.57;8.60;;;1.20;99.90;;;;;;4994891;28;20455;-75
2023/01/18 01:59:41;;;;;;;11.10;8.70;;;1.10;99.90;;;;;;4994578;28;20412;-75
2023/01/18 03:35:30;;;;;;;17.63;11.27;;;1.00;99.90;;;;;;4972017;28;20507;-75
2023/01/18 03:37:57;;;;;;;29.00;12.07;;;1.00;99.90;;;;;;4965265;28;20498;-75
2023/01/18 03:40:27;;;;;;;15.80;11.27;;;1.00;99.90;;;;;;4973236;28;20439;-75
2023/01/18 03:43:18;;;;;;;23.87;13.33;;;1.00;99.90;;;;;;4958836;28;20842;-75
2023/01/18 03:45:54;;;;;;;18.57;12.40;;;1.00;99.90;;;;;;4966966;28;20432;-75
2023/01/18 03:48:19;;;;;;;19.87;12.27;;;0.90;99.90;;;;;;4972826;28;20782;-75
2023/01/18 03:51:07;;;;;;;22.37;12.30;;;0.90;99.90;;;;;;4960152;28;20469;-76
2023/01/18 03:53:38;;;;;;;21.73;13.63;;;0.90;99.90;;;;;;4961455;28;20195;-75
2023/01/18 03:56:17;;;;;;;21.53;13.13;;;1.00;99.90;;;;;;4953786;28;20434;-76
2023/01/18 03:58:44;;;;;;;22.20;11.87;;;1.00;99.90;;;;;;4959503;28;20568;-73
2023/01/18 04:01:10;;;;;;;18.77;11.80;;;1.00;99.90;;;;;;4963292;28;20483;-73
2023/01/18 04:03:36;;;;;;;17.53;11.23;;;1.00;99.90;;;;;;4952387;28;20441;-73
2023/01/18 04:06:06;;;;;;;23.70;13.07;;;1.00;99.90;;;;;;4960807;28;20413;-73
2023/01/18 04:08:32;;;;;;;16.13;10.87;;;1.00;99.90;;;;;;4964607;28;20198;-73
2023/01/18 04:10:57;;;;;;;22.70;12.63;;;1.00;99.90;;;;;;4964839;28;20453;-75
2023/01/18 04:13:23;;;;;;;19.17;12.00;;;1.00;99.90;;;;;;4952972;28;20281;-75
2023/01/18 04:15:48;;;;;;;21.67;11.13;;;0.90;99.90;;;;;;4953512;28;20190;-75
2023/01/18 04:18:14;;;;;;;17.67;11.17;;;1.00;99.90;;;;;;4953230;28;20218;-75
2023/01/18 04:20:39;;;;;;;18.77;13.00;;;1.00;99.90;;;;;;4953503;28;20702;-73
2023/01/18 04:23:05;;;;;;;17.57;12.30;;;1.00;99.90;;;;;;4953113;28;20197;-74
2023/01/18 04:25:30;;;;;;;18.60;11.40;;;1.00;99.90;;;;;;4953267;28;20189;-75
2023/01/18 04:27:56;;;;;;;15.83;11.90;;;1.00;99.90;;;;;;4953252;28;20268;-75
2023/01/18 04:30:21;;;;;;;17.83;12.03;;;1.00;99.90;;;;;;4962776;28;20295;-74
2023/01/18 04:32:48;;;;;;;19.50;12.00;;;1.00;99.90;;;;;;4972219;28;20680;-75
2023/01/18 04:35:13;;;;;;;14.63;10.50;;;1.00;99.90;;;;;;4972422;28;20318;-74
2023/01/18 04:37:39;;;;;;;16.87;11.20;;;1.00;99.90;;;;;;4960227;28;20466;-74
2023/01/18 04:40:05;;;;;;;16.90;11.00;;;1.00;99.90;;;;;;4953419;28;20201;-75
2023/01/18 04:42:31;;;;;;;16.60;11.60;;;1.00;99.90;;;;;;4952614;28;20204;-74
2023/01/18 04:44:58;;;;;;;16.80;10.00;;;1.00;99.90;;;;;;4953103;28;20498;-75
2023/01/18 04:47:24;;;;;;;16.37;11.13;;;0.90;99.90;;;;;;4963034;28;20188;-74
2023/01/18 04:49:50;;;;;;;17.40;11.77;;;1.00;99.90;;;;;;4966902;28;20436;-74
2023/01/18 04:52:15;;;;;;;17.67;11.30;;;1.00;99.90;;;;;;4952608;28;20460;-74
2023/01/18 04:54:42;;;;;;;15.63;11.00;;;1.00;99.90;;;;;;4965445;28;20263;-75
2023/01/18 04:57:08;;;;;;;17.90;11.10;;;0.90;99.90;;;;;;4972341;28;20304;-75
2023/01/18 04:59:33;;;;;;;17.30;10.87;;;0.90;99.90;;;;;;4963621;28;20511;-75
2023/01/18 05:01:58;;;;;;;15.53;10.30;;;0.90;99.90;;;;;;4955547;28;20259;-75
2023/01/18 05:04:24;;;;;;;14.57;9.77;;;0.90;99.90;;;;;;4958424;28;20676;-73
2023/01/18 05:06:50;;;;;;;11.90;9.60;;;0.90;99.90;;;;;;4961983;28;20190;-75
2023/01/18 05:09:15;;;;;;;15.60;10.20;;;0.90;99.90;;;;;;4956039;28;20189;-75
2023/01/18 05:11:42;;;;;;;12.30;8.37;;;0.90;99.90;;;;;;4956026;28;20276;-74
2023/01/18 05:14:07;;;;;;;13.43;8.40;;;0.90;99.90;;;;;;4956295;28;20192;-75
2023/01/18 05:16:34;;;;;;;12.90;8.43;;;0.90;99.90;;;;;;4948478;28;20526;-75
2023/01/18 05:18:59;;;;;;;12.80;8.87;;;0.90;99.90;;;;;;4956307;28;20194;-75
2023/01/18 05:21:25;;;;;;;9.00;6.87;;;0.80;99.90;;;;;;4955887;28;20465;-74
2023/01/18 05:23:51;;;;;;;7.83;7.07;;;0.80;99.90;;;;;;4956120;28;20297;-75
2023/01/18 05:26:19;;;;;;;7.63;6.30;;;0.80;99.90;;;;;;4955985;28;20212;-75
2023/01/18 05:28:46;;;;;;;8.00;6.77;;;0.80;99.90;;;;;;4956251;28;20190;-75
2023/01/18 05:31:13;;;;;;;8.07;6.30;;;0.70;99.90;;;;;;4955735;28;20840;-75
2023/01/18 05:33:39;;;;;;;7.83;6.80;;;0.70;99.90;;;;;;4968311;28;20463;-74
2023/01/18 05:36:05;;;;;;;11.10;7.03;;;0.70;99.90;;;;;;4960269;28;20465;-75
2023/01/18 05:38:30;;;;;;;8.97;6.50;;;0.80;99.90;;;;;;4958865;28;20263;-74
2023/01/18 05:40:56;;;;;;;7.23;6.27;;;0.80;99.90;;;;;;4975447;28;20724;-74
2023/01/18 05:43:23;;;;;;;8.90;7.27;;;0.80;99.90;;;;;;4972987;28;20256;-75
2023/01/18 05:45:49;;;;;;;6.80;5.67;;;0.70;99.90;;;;;;4961494;28;20192;-75
2023/01/18 05:48:15;;;;;;;9.40;5.77;;;0.70;99.90;;;;;;4974991;28;20777;-74
2023/01/18 05:50:44;;;;;;;6.70;5.37;;;0.70;99.90;;;;;;4964838;28;20222;-75
2023/01/18 05:53:12;;;;;;;7.97;5.70;;;0.70;99.90;;;;;;4964132;28;20666;-74
2023/01/18 05:55:38;;;;;;;9.40;6.80;;;0.70;99.90;;;;;;4963859;28;20932;-74
2023/01/18 05:58:03;;;;;;;7.67;5.90;;;0.80;99.90;;;;;;4970861;28;20553;-75
2023/01/18 06:00:29;;;;;;;8.27;6.80;;;0.80;99.90;;;;;;4955950;28;20230;-75
2023/01/18 06:02:55;;;;;;;14.23;6.97;;;0.70;99.90;;;;;;4955273;28;20199;-74
2023/01/18 06:05:22;;;;;;;9.87;6.60;;;0.70;99.90;;;;;;4955270;28;20265;-74
2023/01/18 06:07:47;;;;;;;9.40;8.10;;;0.70;99.90;;;;;;4960762;28;20945;-75
2023/01/18 06:10:13;;;;;;;11.97;7.30;;;0.70;99.90;;;;;;4958609;28;20500;-74
2023/01/18 06:12:40;;;;;;;8.73;6.33;;;0.70;99.90;;;;;;4955005;28;20217;-75
2023/01/18 06:15:06;;;;;;;10.40;7.30;;;0.70;99.90;;;;;;4963173;28;20468;-74
2023/01/18 06:17:33;;;;;;;7.87;6.60;;;0.70;99.90;;;;;;4955416;28;20537;-75
2023/01/18 06:19:58;;;;;;;10.93;7.57;;;0.70;99.90;;;;;;4954081;28;20440;-74
2023/01/18 06:22:24;;;;;;;8.83;6.37;;;0.70;99.90;;;;;;4970457;28;20455;-75
2023/01/18 06:24:50;;;;;;;10.53;7.37;;;0.70;99.90;;;;;;4955333;28;20240;-74
2023/01/18 06:27:15;;;;;;;8.10;6.63;;;0.70;99.90;;;;;;4955694;28;20580;-74
2023/01/18 06:29:41;;;;;;;10.00;6.40;;;0.70;99.90;;;;;;4956104;28;20659;-75
2023/01/18 06:32:06;;;;;;;7.00;5.17;;;0.70;99.90;;;;;;4954925;28;20227;-75
2023/01/18 06:34:32;;;;;;;7.90;6.40;;;0.70;99.90;;;;;;4955090;28;20775;-74
2023/01/18 06:36:58;;;;;;;7.63;5.83;;;0.70;99.90;;;;;;4969621;28;20251;-75
2023/01/18 06:39:24;;;;;;;8.43;5.87;;;0.70;99.90;;;;;;4964111;28;20682;-74
2023/01/18 06:41:49;;;;;;;10.70;6.87;;;0.70;99.90;;;;;;4968061;28;20460;-75
2023/01/18 06:44:15;;;;;;;9.90;6.90;;;0.70;99.90;;;;;;4973100;28;20203;-74
2023/01/18 06:46:43;;;;;;;9.20;6.80;;;0.70;99.90;;;;;;4954614;28;20591;-75
2023/01/18 06:49:10;;;;;;;10.47;7.30;;;0.60;99.90;;;;;;4962553;28;20193;-75
2023/01/18 06:51:35;;;;;;;12.63;7.60;;;0.70;99.90;;;;;;4974347;28;20458;-75
2023/01/18 06:54:01;;;;;;;11.43;8.47;;;0.70;99.90;;;;;;4958793;28;20485;-75
2023/01/18 06:56:28;;;;;;;12.53;7.97;;;0.70;99.90;;;;;;4967487;28;20275;-74
2023/01/18 06:58:56;;;;;;;15.53;10.00;;;0.70;99.90;;;;;;4973813;28;20193;-74
2023/01/18 07:01:21;;;;;;;16.83;9.93;;;0.70;99.90;;;;;;4973266;28;20427;-74
2023/01/18 07:03:47;;;;;;;13.10;10.40;;;0.80;99.90;;;;;;4973591;28;20780;-74
2023/01/18 07:06:12;;;;;;;19.40;10.80;;;0.80;99.90;;;;;;4973293;28;20203;-72
2023/01/18 07:08:39;;;;;;;14.03;10.70;;;0.80;99.90;;;;;;4973568;28;20203;-73
2023/01/18 07:11:06;;;;;;;15.73;11.20;;;0.80;99.90;;;;;;4972752;28;20201;-73
2023/01/18 07:13:32;;;;;;;16.30;10.50;;;0.80;99.90;;;;;;4972981;28;20530;-73
2023/01/18 07:16:00;;;;;;;17.10;11.00;;;0.80;99.90;;;;;;4973556;28;20523;-73
2023/01/18 07:18:26;;;;;;;13.80;11.17;;;0.80;99.90;;;;;;4971771;28;20212;-73
2023/01/18 07:20:57;;;;;;;11.20;9.53;;;0.80;99.90;;;;;;4959454;28;20869;-74
2023/01/18 07:23:23;;;;;;;17.57;10.60;;;0.80;99.90;;;;;;4954784;28;20429;-73
2023/01/18 07:25:48;;;;;;;15.67;10.07;;;0.80;99.90;;;;;;4972541;28;20519;-73
2023/01/18 07:28:14;;;;;;;14.87;9.73;;;0.80;99.90;;;;;;4972761;28;20185;-73
2023/01/18 07:30:39;;;;;;;13.70;8.93;;;0.80;99.90;;;;;;4972739;28;20222;-73
2023/01/18 07:33:06;;;;;;;10.63;8.20;;;0.80;99.90;;;;;;4972478;28;20301;-74
2023/01/18 07:35:32;;;;;;;15.33;9.83;;;0.80;99.90;;;;;;4972728;28;20396;-73
2023/01/18 07:37:57;;;;;;;10.50;8.20;;;0.80;99.90;;;;;;4972819;28;21082;-74
2023/01/18 07:40:23;;;;;;;9.67;8.07;;;0.80;99.90;;;;;;4972425;28;20192;-74
2023/01/18 07:42:54;;;;;;;13.53;8.17;;;0.80;99.90;;;;;;4967280;28;20185;-74
2023/01/18 07:45:20;;;;;;;11.23;8.83;;;0.80;99.90;;;;;;4953229;28;20828;-73
2023/01/18 07:47:45;;;;;;;12.10;9.50;;;0.80;99.90;;;;;;4958459;28;20499;-73
2023/01/18 07:50:12;;;;;;;12.27;9.90;;;0.80;99.90;;;;;;4971930;28;20679;-73
2023/01/18 07:52:38;;;;;;;14.27;9.47;;;0.80;99.90;;;;;;4971050;28;20219;-73
2023/01/18 07:55:04;;;;;;;19.53;10.77;;;0.80;99.90;;;;;;4972262;28;20442;-73
2023/01/18 07:57:29;;;;;;;14.13;9.53;;;0.80;99.90;;;;;;4971126;28;20584;-73
2023/01/18 07:59:55;;;;;;;14.70;10.40;;;0.80;99.90;;;;;;4972603;28;20435;-72
2023/01/18 08:02:20;;;;;;;16.10;10.63;;;0.70;99.90;;;;;;4972004;28;20691;-73
2023/01/18 08:04:49;;;;;;;15.13;11.23;;;0.70;99.90;;;;;;4972568;28;20195;-73
2023/01/18 08:07:16;;;;;;;15.57;10.03;;;0.70;99.90;;;;;;4972232;28;20190;-73
2023/01/18 08:09:42;;;;;;;11.27;9.00;;;0.70;99.90;;;;;;4972478;28;20490;-74
2023/01/18 08:12:12;;;;;;;13.40;9.10;;;0.70;99.90;;;;;;4970869;28;20533;-73
2023/01/18 08:14:38;;;;;;;21.60;10.60;;;0.70;99.90;;;;;;4972467;28;20275;-73
2023/01/18 08:17:05;;;;;;;16.20;9.97;;;0.70;99.90;;;;;;4972421;28;20851;-72
2023/01/18 08:19:30;;;;;;;14.10;10.80;;;0.60;99.90;;;;;;4971985;28;20435;-73
2023/01/18 08:21:56;;;;;;;13.43;10.70;;;0.60;99.90;;;;;;4971967;28;20558;-72
2023/01/18 08:24:22;;;;;;;13.73;10.30;;;0.60;99.90;;;;;;4962795;28;20204;-73
2023/01/18 08:26:47;;;;;;;10.47;8.90;;;0.60;99.90;;;;;;4972357;28;20183;-72
2023/01/18 08:29:13;;;;;;;14.60;10.53;;;0.60;99.90;;;;;;4971926;28;20197;-73
2023/01/18 08:31:38;;;;;;;15.10;10.17;;;0.70;99.90;;;;;;4972036;28;20294;-73
2023/01/18 08:34:04;;;;;;;13.93;9.90;;;0.70;99.90;;;;;;4974217;28;20190;-73
2023/01/18 08:36:30;;;;;;;11.87;10.30;;;0.70;99.90;;;;;;4975908;28;20306;-72
2023/01/18 08:38:56;;;;;;;13.70;9.00;;;0.80;99.90;;;;;;4976138;28;20492;-73
2023/01/18 08:41:27;;;;;;;13.20;9.67;;;0.80;99.90;;;;;;4975750;28;20550;-73
2023/01/18 08:43:53;;;;;;;14.80;10.77;;;0.80;99.90;;;;;;4975968;28;20188;-73
2023/01/18 08:46:19;;;;;;;10.57;9.40;;;0.80;99.90;;;;;;4975800;28;20452;-73
2023/01/18 08:48:48;;;;;;;14.30;9.53;;;0.90;99.90;;;;;;4976000;28;20457;-73
2023/01/18 08:51:16;;;;;;;14.57;9.87;;;0.90;99.90;;;;;;4974977;28;20463;-74
2023/01/18 08:53:42;;;;;;;12.30;9.20;;;1.00;99.90;;;;;;4956502;28;20859;-73
2023/01/18 08:56:08;;;;;;;10.30;8.07;;;1.00;99.90;;;;;;4956601;28;20474;-73
2023/01/18 08:58:34;;;;;;;11.90;8.40;;;1.10;99.90;;;;;;4956272;28;20464;-73
2023/01/18 09:01:03;;;;;;;12.70;8.43;;;1.10;99.90;;;;;;4956578;28;20572;-71
2023/01/18 09:03:29;;;;;;;15.63;9.40;;;1.10;99.90;;;;;;4955916;28;20194;-73
2023/01/18 09:05:54;;;;;;;10.83;8.60;;;1.10;99.90;;;;;;4956478;28;20439;-72
2023/01/18 09:08:21;;;;;;;10.07;8.30;;;1.00;99.90;;;;;;4956178;28;20737;-73
2023/01/18 09:10:47;;;;;;;10.30;7.97;;;1.00;99.90;;;;;;4961506;28;20208;-73
2023/01/18 09:13:12;;;;;;;9.60;8.13;;;1.00;99.90;;;;;;4974984;28;20455;-72
2023/01/18 09:15:38;;;;;;;9.67;8.20;;;0.90;99.90;;;;;;4971956;28;20541;-73
2023/01/18 09:18:05;;;;;;;9.57;7.73;;;1.00;99.90;;;;;;4956272;28;20205;-73
2023/01/18 09:20:34;;;;;;;11.80;8.20;;;1.00;99.90;;;;;;4955967;28;20237;-73
2023/01/18 09:23:03;;;;;;;12.50;7.70;;;1.00;99.90;;;;;;4955933;28;20771;-72
2023/01/18 09:25:29;;;;;;;12.47;9.37;;;1.00;99.90;;;;;;4956033;28;20436;-73
2023/01/18 09:27:54;;;;;;;13.53;8.40;;;1.10;99.90;;;;;;4956320;28;20444;-75
2023/01/18 09:30:20;;;;;;;10.73;7.60;;;1.10;99.90;;;;;;4955762;28;20303;-71
2023/01/18 09:32:46;;;;;;;14.20;7.20;;;1.00;99.90;;;;;;4955811;28;20284;-73
2023/01/18 09:35:16;;;;;;;13.93;7.97;;;1.00;99.90;;;;;;4955644;28;20199;-73
2023/01/18 09:37:45;;;;;;;12.03;7.77;;;1.00;99.90;;;;;;4956243;28;20482;-72
2023/01/18 09:40:19;;;;;;;9.83;8.23;;;1.00;99.90;;;;;;4956558;28;20515;-69
2023/01/18 09:42:47;;;;;;;16.60;8.57;;;1.00;99.90;;;;;;4957253;28;20427;-73
2023/01/18 09:45:26;;;;;;;9.03;7.17;;;1.00;99.90;;;;;;4955855;28;20437;-72
2023/01/18 09:47:59;;;;;;;11.00;7.50;;;1.00;99.90;;;;;;4955965;28;20452;-74
2023/01/18 09:50:25;;;;;;;13.03;8.10;;;1.00;99.90;;;;;;4955370;28;20411;-73
2023/01/18 09:53:07;;;;;;;13.33;7.83;;;1.00;99.90;;;;;;4955632;28;20470;-73
2023/01/18 09:55:59;;;;;;;16.23;8.27;;;1.10;99.90;;;;;;4955839;28;20192;-73
2023/01/18 09:59:10;;;;;;;7.97;6.73;;;1.10;99.90;;;;;;4955444;28;20538;-73
2023/01/18 10:01:37;;;;;;;8.73;7.13;;;1.10;99.90;;;;;;4942915;28;20550;-73
2023/01/18 10:04:16;;;;;;;10.00;7.37;;;1.20;99.90;;;;;;4974745;28;20424;-74
2023/01/18 10:07:02;;;;;;;7.63;6.83;;;1.20;99.90;;;;;;4974831;28;20462;-73
2023/01/18 10:09:31;;;;;;;10.20;6.60;;;1.30;99.90;;;;;;4974812;28;20975;-73
2023/01/18 10:12:00;;;;;;;9.30;5.83;;;1.30;99.90;;;;;;4960329;28;20445;-75
2023/01/18 10:14:47;;;;;;;7.50;6.23;;;1.30;99.90;;;;;;4965294;28;20465;-74
2023/01/18 10:17:22;;;;;;;8.87;6.10;;;1.20;99.90;;;;;;4974274;28;20467;-73
2023/01/18 10:19:49;;;;;;;10.97;6.90;;;1.40;99.90;;;;;;4960362;28;20443;-74
2023/01/18 10:22:30;;;;;;;8.33;6.40;;;1.60;99.90;;;;;;4962658;28;20447;-74
2023/01/18 10:25:01;;;;;;;8.63;6.47;;;1.70;99.90;;;;;;4955226;28;20422;-73
2023/01/18 10:27:59;;;;;;;9.53;7.13;;;1.70;99.90;;;;;;4955060;28;20448;-74
2023/01/18 10:30:37;;;;;;;9.50;7.60;;;1.90;99.90;;;;;;4954914;28;20934;-74
2023/01/18 10:33:19;;;;;;;9.07;6.90;;;1.90;99.90;;;;;;4969765;28;20433;-74
2023/01/18 10:35:48;;;;;;;7.53;6.40;;;2.00;99.90;;;;;;4974481;28;20801;-75
2023/01/18 10:38:21;;;;;;;13.53;6.70;;;2.10;99.90;;;;;;4973821;28;20979;-73
2023/01/18 10:41:00;;;;;;;9.10;7.10;;;2.10;99.90;;;;;;4974330;28;20445;-74
2023/01/18 10:43:27;;;;;;;10.70;7.30;;;2.00;99.90;;;;;;4972223;28;20433;-73
2023/01/18 10:45:54;;;;;;;9.47;6.87;;;1.90;99.90;;;;;;4955705;28;20795;-74
2023/01/18 10:48:19;;;;;;;10.33;6.20;;;2.00;99.90;;;;;;4954424;28;20462;-72
2023/01/18 10:50:51;;;;;;;12.40;6.77;;;2.00;99.90;;;;;;4954788;28;20451;-75
2023/01/18 10:53:23;;;;;;;12.87;8.60;;;2.10;99.90;;;;;;4954311;28;20203;-73
2023/01/18 10:55:58;;;;;;;8.50;6.17;;;2.00;99.90;;;;;;4954545;28;20461;-72
2023/01/18 10:58:50;;;;;;;11.57;7.30;;;2.00;99.90;;;;;;4956400;28;20484;-74
2023/01/18 11:01:23;;;;;;;9.30;6.63;;;2.20;99.90;;;;;;4956747;28;20448;-73
2023/01/18 11:04:04;;;;;;;9.93;7.13;;;2.20;99.90;;;;;;4954406;28;20806;-74
2023/01/18 11:06:49;;;;;;;11.80;6.77;;;2.30;99.90;;;;;;4972706;28;20501;-73
2023/01/18 11:09:38;;;;;;;13.33;7.07;;;2.50;99.90;;;;;;4956774;28;20443;-72
2023/01/18 11:12:35;;;;;;;13.47;6.13;;;2.80;99.90;;;;;;4954030;28;20826;-74
2023/01/18 11:15:13;;;;;;;9.80;5.63;;;2.80;99.90;;;;;;4954287;28;20422;-74
2023/01/18 11:17:43;;;;;;;15.03;6.77;;;2.90;99.90;;;;;;4950630;28;21000;-74
2023/01/18 11:20:29;;;;;;;9.67;6.00;;;2.70;99.90;;;;;;4973102;28;20434;-75
2023/01/18 11:22:59;;;;;;;9.57;6.50;;;2.80;99.90;;;;;;4973222;28;20427;-75
2023/01/18 11:25:26;;;;;;;8.10;5.27;;;2.60;99.90;;;;;;4973066;28;20435;-74
2023/01/18 11:27:59;;;;;;;11.10;6.33;;;2.60;99.90;;;;;;4973330;28;20422;-74
2023/01/18 11:30:26;;;;;;;6.93;5.80;;;2.50;99.90;;;;;;4972764;28;20471;-74
2023/01/18 11:32:51;;;;;;;7.90;5.90;;;2.60;99.90;;;;;;4959828;28;21008;-74
2023/01/18 11:35:44;;;;;;;9.03;6.70;;;2.40;99.90;;;;;;4953451;28;20434;-73
2023/01/18 11:38:17;;;;;;;8.30;5.90;;;2.20;99.90;;;;;;4967942;28;20222;-74
2023/01/18 11:40:43;;;;;;;9.70;5.87;;;2.10;99.90;;;;;;4968769;28;20458;-73
2023/01/18 11:43:08;;;;;;;8.00;6.30;;;2.00;99.90;;;;;;4954014;28;20439;-73
2023/01/18 11:45:47;;;;;;;11.30;5.90;;;2.00;99.90;;;;;;4953707;28;20267;-73
2023/01/18 11:48:25;;;;;;;14.83;6.10;;;2.10;99.90;;;;;;4953817;28;20225;-72
2023/01/18 11:50:56;;;;;;;13.50;4.93;;;2.10;99.90;;;;;;4959092;28;20524;-73
2023/01/18 11:53:56;;;;;;;8.30;5.10;;;2.10;99.90;;;;;;4970807;28;20486;-73
2023/01/18 11:56:39;;;;;;;10.63;5.50;;;2.00;99.90;;;;;;4963069;28;20435;-73
2023/01/18 11:59:20;;;;;;;9.70;4.17;;;1.90;99.90;;;;;;4972802;28;20803;-73
2023/01/18 12:02:23;;;;;;;11.80;5.60;;;1.90;99.90;;;;;;4960092;28;20942;-72
2023/01/18 12:04:57;;;;;;;8.63;5.30;;;2.00;99.90;;;;;;4953478;28;20435;-71
2023/01/18 12:07:30;;;;;;;9.03;4.97;;;2.00;99.90;;;;;;4953583;28;20427;-74
2023/01/18 12:09:59;;;;;;;22.37;5.17;;;2.10;99.90;;;;;;4953326;28;20978;-72
2023/01/18 12:12:52;;;;;;;7.23;5.03;;;2.10;99.90;;;;;;4952736;28;20628;-74
2023/01/18 12:15:27;;;;;;;6.83;5.00;;;2.00;99.90;;;;;;4961334;28;20445;-74
2023/01/18 12:18:17;;;;;;;7.97;3.97;;;1.90;99.90;;;;;;4960211;28;20466;-74
2023/01/18 12:21:01;;;;;;;9.30;5.77;;;1.90;99.90;;;;;;4951063;28;20431;-74
2023/01/18 12:23:45;;;;;;;9.33;5.17;;;2.00;99.90;;;;;;4962086;28;20764;-74
2023/01/18 12:26:28;;;;;;;15.03;5.67;;;1.90;99.90;;;;;;4969167;28;20417;-73
2023/01/18 12:29:08;;;;;;;15.70;5.80;;;1.90;99.90;;;;;;4961339;28;20423;-74
2023/01/18 12:31:46;;;;;;;18.47;6.03;;;1.90;99.90;;;;;;4964037;28;20497;-74
2023/01/18 12:34:20;;;;;;;16.40;5.97;;;1.80;99.90;;;;;;4964194;28;20461;-72
2023/01/18 12:37:00;;;;;;;12.27;5.50;;;1.90;99.90;;;;;;4961924;28;20416;-74
2023/01/18 12:39:34;;;;;;;17.90;5.87;;;1.90;99.90;;;;;;4962938;28;20411;-73
2023/01/18 12:42:15;;;;;;;17.57;5.90;;;1.90;99.90;;;;;;4957848;28;20549;-74
2023/01/18 12:45:01;;;;;;;15.10;6.07;;;1.90;99.90;;;;;;4961646;28;20781;-74
2023/01/18 12:47:41;;;;;;;18.00;5.60;;;1.80;99.90;;;;;;4961363;28;20809;-74
2023/01/18 12:50:21;;;;;;;13.00;5.17;;;2.00;99.90;;;;;;4962198;28;20421;-73
2023/01/18 12:52:52;;;;;;;12.53;5.43;;;1.90;99.90;;;;;;4956111;28;20470;-74
2023/01/18 12:55:22;;;;;;;14.63;5.60;;;2.00;99.90;;;;;;4962722;28;20432;-74
2023/01/18 12:57:51;;;;;;;17.90;6.40;;;2.10;99.90;;;;;;4965016;28;20461;-74
2023/01/18 13:00:30;;;;;;;11.70;5.50;;;2.10;99.90;;;;;;4964786;28;20768;-74
2023/01/18 13:02:56;;;;;;;12.30;5.30;;;2.10;99.90;;;;;;4962250;28;20413;-74
2023/01/18 13:05:32;;;;;;;11.90;6.23;;;2.00;99.90;;;;;;4964139;28;20850;-73
2023/01/18 13:08:05;;;;;;;11.90;6.27;;;2.00;99.90;;;;;;4968238;28;20949;-74
2023/01/18 13:10:32;;;;;;;12.30;6.43;;;1.90;99.90;;;;;;4961029;28;20424;-73
2023/01/18 13:12:57;;;;;;;13.17;5.50;;;1.90;99.90;;;;;;4967991;28;20423;-74
2023/01/18 13:15:35;;;;;;;11.07;4.67;;;1.80;99.90;;;;;;4963027;28;20998;-73
2023/01/18 13:18:14;;;;;;;13.83;5.33;;;1.80;99.90;;;;;;4961128;28;20253;-73
2023/01/18 13:21:11;;;;;;;12.40;5.40;;;2.00;99.90;;;;;;4963873;28;20952;-74
2023/01/18 13:24:09;;;;;;;19.00;6.50;;;2.00;99.90;;;;;;4956692;28;20428;-75
2023/01/18 13:26:35;;;;;;;13.57;6.10;;;2.00;99.90;;;;;;4967460;28;20420;-74
2023/01/18 13:29:22;;;;;;;12.73;5.23;;;2.10;99.90;;;;;;4967744;28;20432;-73
2023/01/18 13:31:49;;;;;;;17.93;5.63;;;2.10;99.90;;;;;;4957951;28;20699;-75
2023/01/18 13:34:34;;;;;;;10.40;4.67;;;2.20;99.90;;;;;;4964279;28;20435;-74
2023/01/18 13:37:02;;;;;;;14.03;4.43;;;2.10;99.90;;;;;;4967230;28;20997;-73
2023/01/18 13:39:30;;;;;;;21.13;4.90;;;2.10;99.90;;;;;;4967136;28;20451;-74
2023/01/18 13:42:07;;;;;;;172.13;47.87;;;2.00;99.90;;;;;;4967108;28;20436;-74
2023/01/18 13:44:46;;;;;;;16.37;5.07;;;2.10;99.90;;;;;;4964272;28;20417;-74
2023/01/18 13:47:34;;;;;;;13.43;4.60;;;2.10;99.90;;;;;;4963911;28;20460;-73
2023/01/18 13:49:59;;;;;;;13.83;5.13;;;2.10;99.90;;;;;;4967094;28;20787;-74
2023/01/18 13:52:37;;;;;;;14.80;6.53;;;2.10;99.90;;;;;;4964830;28;20457;-74
2023/01/18 13:55:35;;;;;;;139.43;17.20;;;2.00;99.90;;;;;;4963840;28;20179;-74
2023/01/18 13:58:01;;;;;;;19.70;6.13;;;2.00;99.90;;;;;;4945913;28;20479;-74
2023/01/18 14:00:28;;;;;;;16.60;5.57;;;2.10;99.90;;;;;;4964586;28;20433;-74
2023/01/18 14:03:13;;;;;;;21.37;5.83;;;2.10;99.90;;;;;;4963461;28;20580;-74
2023/01/18 14:05:44;;;;;;;17.83;5.97;;;2.00;99.90;;;;;;4964182;28;20523;-73
2023/01/18 14:08:19;;;;;;;20.97;6.00;;;2.10;99.90;;;;;;4965274;28;20430;-73
2023/01/18 14:10:52;;;;;;;18.40;4.37;;;2.10;99.90;;;;;;4956895;28;20498;-74
2023/01/18 14:13:43;;;;;;;12.33;5.20;;;2.00;99.90;;;;;;4963991;28;20837;-73
2023/01/18 14:16:17;;;;;;;14.60;4.77;;;2.00;99.90;;;;;;4966655;28;20480;-75
2023/01/18 14:18:55;;;;;;;12.30;5.50;;;1.90;99.90;;;;;;4952753;28;20482;-74
2023/01/18 14:21:28;;;;;;;20.73;5.30;;;1.90;99.90;;;;;;4965260;28;20450;-74
2023/01/18 14:24:18;;;;;;;10.50;4.80;;;1.90;99.90;;;;;;4963340;28;20419;-74
2023/01/18 14:26:44;;;;;;;112.63;52.40;;;1.90;99.90;;;;;;4960892;28;20413;-73
2023/01/18 14:29:35;;;;;;;12.60;5.57;;;1.90;99.90;;;;;;4966644;28;20410;-74
2023/01/18 14:32:03;;;;;;;13.60;5.93;;;1.90;99.90;;;;;;4956418;28;21009;-74
2023/01/18 14:34:29;;;;;;;13.97;6.37;;;1.80;99.90;;;;;;4958577;28;20427;-74
2023/01/18 14:36:56;;;;;;;16.57;6.40;;;1.90;99.90;;;;;;4960999;28;20465;-74
2023/01/18 14:39:21;;;;;;;15.90;5.60;;;1.80;99.90;;;;;;4963029;28;20188;-73
2023/01/18 14:41:55;;;;;;;15.53;7.10;;;1.80;99.90;;;;;;4966229;28;20978;-73
2023/01/18 14:44:24;;;;;;;16.73;6.33;;;1.70;99.90;;;;;;4966343;28;20191;-73
2023/01/18 14:46:53;;;;;;;11.17;5.90;;;1.70;99.90;;;;;;4966495;28;20428;-74
2023/01/18 14:49:30;;;;;;;10.97;4.80;;;1.70;99.90;;;;;;4965133;28;20500;-73
2023/01/18 14:51:57;;;;;;;12.73;6.07;;;1.80;99.90;;;;;;4962888;28;20435;-74
2023/01/18 14:54:24;;;;;;;13.73;6.70;;;1.80;99.90;;;;;;4964126;28;20935;-73